createdAt,value
2023-09-27T00:29:35.338Z,5.70
2023-09-27T00:32:18.949Z,7.80
2023-09-27T00:34:52.287Z,9.40
2023-09-27T00:37:29.789Z,9.60
2023-09-27T00:40:12.849Z,6.40
2023-09-27T00:42:49.740Z,9.90
2023-09-27T00:45:24.451Z,8.50
2023-09-27T00:48:00.812Z,9.10
2023-09-27T00:50:36.941Z,8.20
2023-09-27T00:53:10.442Z,7.10
2023-09-27T00:55:45.176Z,8.20
2023-09-27T00:58:21.918Z,7.90
2023-09-27T01:00:55.064Z,7.10
2023-09-27T01:03:29.951Z,5.70
2023-09-27T01:06:03.861Z,8.60
2023-09-27T01:08:36.716Z,6.70
2023-09-27T01:11:09.686Z,8.20
2023-09-27T01:13:43.844Z,7.90
2023-09-27T01:16:16.631Z,6.10
2023-09-27T01:18:49.488Z,9.10
2023-09-27T01:21:22.245Z,5.60
2023-09-27T01:23:56.349Z,7.90
2023-09-27T01:26:32.026Z,11.20
2023-09-27T01:29:06.493Z,11.20
2023-09-27T01:31:41.330Z,7.80
2023-09-27T01:34:17.722Z,6.20
2023-09-27T01:36:50.393Z,6.80
2023-09-27T01:39:25.500Z,7.40
2023-09-27T01:41:58.308Z,7.40
2023-09-27T01:44:33.144Z,6.80
2023-09-27T01:47:07.389Z,6.60
2023-09-27T01:49:40.182Z,9.30
2023-09-27T01:52:12.898Z,8.40
2023-09-27T01:54:46.173Z,7.20
2023-09-27T01:57:19.072Z,6.60
2023-09-27T01:59:51.911Z,6.70
2023-09-27T02:02:24.973Z,6.40
2023-09-27T02:04:58.089Z,8.20
2023-09-27T02:07:33.139Z,8.50
2023-09-27T02:10:07.056Z,7.60
2023-09-27T02:12:40.904Z,8.90
2023-09-27T02:15:19.322Z,9.00
2023-09-27T02:17:53.147Z,7.50
2023-09-27T02:20:27.523Z,9.50
2023-09-27T02:23:00.280Z,6.00
2023-09-27T02:25:34.095Z,8.50
2023-09-27T03:09:38.589Z,7.10
2023-09-27T03:12:12.957Z,7.00
2023-09-27T03:14:46.137Z,6.70
2023-09-27T03:17:18.940Z,6.50
2023-09-27T03:19:54.330Z,8.00
2023-09-27T03:22:27.452Z,6.80
2023-09-27T03:25:02.785Z,6.20
2023-09-27T03:27:37.249Z,5.60
2023-09-27T03:30:17.379Z,7.90
2023-09-27T03:32:58.482Z,7.20
2023-09-27T03:35:31.344Z,7.30
2023-09-27T03:38:05.714Z,8.30
2023-09-27T03:40:47.374Z,6.10
2023-09-27T03:43:25.557Z,8.10
2023-09-27T03:45:58.329Z,7.50
2023-09-27T03:48:31.152Z,8.40
2023-09-27T03:51:04.667Z,9.10
2023-09-27T03:53:37.931Z,11.20
2023-09-27T03:56:12.905Z,8.70
2023-09-27T03:58:45.819Z,5.70
2023-09-27T04:01:18.825Z,6.60
2023-09-27T04:03:51.443Z,7.50
2023-09-27T04:06:26.931Z,6.10
2023-09-27T04:09:02.398Z,5.30
2023-09-27T04:11:37.028Z,5.90
2023-09-27T04:14:12.923Z,5.70
2023-09-27T04:16:45.861Z,8.60
2023-09-27T04:19:18.581Z,5.00
2023-09-27T04:21:57.437Z,6.30
2023-09-27T04:24:41.403Z,4.00
2023-09-27T04:27:22.073Z,5.10
2023-09-27T04:30:21.257Z,5.40
2023-09-27T04:32:57.411Z,8.40
2023-09-27T04:35:30.661Z,5.80
2023-09-27T04:38:11.363Z,7.10
2023-09-27T04:40:46.669Z,8.70
2023-09-27T04:43:23.314Z,10.50
2023-09-27T04:46:01.942Z,8.60
2023-09-27T04:48:57.328Z,11.60
2023-09-27T04:51:37.457Z,10.50
2023-09-27T04:54:12.537Z,9.50
2023-09-27T04:56:45.677Z,12.80
2023-09-27T04:59:23.354Z,14.00
2023-09-27T05:01:58.848Z,8.80
2023-09-27T05:04:33.354Z,8.20
2023-09-27T05:07:12.445Z,10.90
2023-09-27T05:09:46.361Z,12.10
2023-09-27T05:12:19.433Z,12.80
2023-09-27T05:14:52.468Z,10.60
2023-09-27T05:17:25.725Z,11.70
2023-09-27T05:19:59.666Z,16.10
2023-09-27T05:22:32.839Z,18.50
2023-09-27T05:25:08.611Z,15.00
2023-09-27T05:27:41.629Z,19.60
2023-09-27T05:30:22.027Z,22.00
2023-09-27T05:33:10.143Z,18.90
2023-09-27T05:35:57.801Z,19.40
2023-09-27T05:38:32.806Z,22.70
2023-09-27T05:41:21.993Z,22.50
2023-09-27T05:43:57.159Z,41.80
2023-09-27T05:46:31.145Z,30.80
2023-09-27T05:49:06.673Z,22.10
2023-09-27T05:51:42.321Z,17.40
2023-09-27T05:54:15.521Z,26.50
2023-09-27T05:56:54.414Z,34.10
2023-09-27T05:59:27.813Z,19.20
2023-09-27T06:02:02.025Z,23.60
2023-09-27T06:04:35.023Z,28.90
2023-09-27T06:07:09.488Z,20.70
2023-09-27T06:09:47.241Z,21.20
2023-09-27T06:12:20.690Z,17.80
2023-09-27T06:14:53.815Z,16.10
2023-09-27T06:17:28.662Z,14.60
2023-09-27T06:20:11.778Z,12.10
2023-09-27T06:22:54.371Z,8.30
2023-09-27T06:25:37.518Z,11.00
2023-09-27T06:28:15.151Z,15.40
2023-09-27T06:30:47.992Z,9.50
2023-09-27T06:33:21.102Z,11.60
2023-09-27T06:35:54.947Z,9.30
2023-09-27T06:38:30.110Z,9.70
2023-09-27T06:41:03.254Z,11.70
2023-09-27T06:43:37.190Z,11.60
2023-09-27T06:46:17.897Z,9.90
2023-09-27T06:48:54.206Z,9.40
2023-09-27T06:51:30.898Z,9.00
2023-09-27T06:54:03.957Z,9.20
2023-09-27T06:56:38.425Z,10.00
2023-09-27T06:59:22.061Z,9.30
2023-09-27T07:01:58.202Z,15.60
2023-09-27T07:04:30.999Z,15.80
2023-09-27T07:07:04.019Z,13.80
2023-09-27T07:09:40.306Z,18.90
2023-09-27T07:12:13.242Z,18.30
2023-09-27T07:14:46.709Z,18.50
2023-09-27T07:17:20.196Z,13.20
2023-09-27T07:19:56.976Z,16.90
2023-09-27T07:22:32.579Z,11.70
2023-09-27T07:25:13.651Z,17.00
2023-09-27T07:27:47.555Z,10.70
2023-09-27T07:30:29.117Z,15.80
2023-09-27T07:33:01.922Z,13.40
2023-09-27T07:35:35.203Z,15.00
2023-09-27T07:38:09.724Z,12.90
2023-09-27T07:40:42.989Z,14.00
2023-09-27T07:43:16.924Z,10.30
2023-09-27T07:45:49.923Z,14.70
2023-09-27T07:48:23.207Z,15.20
2023-09-27T07:50:56.201Z,14.30
2023-09-27T07:53:40.742Z,16.50
2023-09-27T07:56:22.749Z,15.30
2023-09-27T07:58:57.085Z,13.30
2023-09-27T08:01:30.425Z,14.00
2023-09-27T08:04:11.369Z,13.60
2023-09-27T08:06:46.647Z,12.60
2023-09-27T08:09:38.871Z,12.70
2023-09-27T08:12:14.656Z,16.60
2023-09-27T08:14:47.272Z,11.90
2023-09-27T08:17:21.141Z,12.10
2023-09-27T08:19:57.999Z,13.20
2023-09-27T08:22:33.944Z,16.60
2023-09-27T08:25:10.255Z,16.40
2023-09-27T08:27:45.131Z,12.40
2023-09-27T08:30:18.168Z,10.90
2023-09-27T08:33:02.705Z,14.90
2023-09-27T08:35:36.431Z,13.70
2023-09-27T08:38:14.525Z,13.20
2023-09-27T08:40:49.145Z,16.10
2023-09-27T08:43:34.431Z,12.10
2023-09-27T08:46:10.849Z,12.10
2023-09-27T08:49:11.205Z,10.50
2023-09-27T08:51:48.178Z,11.10
2023-09-27T08:54:26.186Z,12.30
2023-09-27T08:56:59.879Z,18.40
2023-09-27T08:59:40.566Z,15.00
2023-09-27T09:02:16.818Z,15.40
2023-09-27T09:04:51.931Z,12.80
2023-09-27T09:07:30.253Z,11.90
2023-09-27T09:10:12.412Z,9.00
2023-09-27T09:13:29.634Z,10.50
2023-09-27T09:16:31.495Z,12.10
2023-09-27T09:19:42.985Z,11.30
2023-09-27T09:22:17.646Z,11.60
2023-09-27T09:25:02.720Z,12.30
2023-09-27T09:27:38.328Z,15.40
2023-09-27T09:30:15.699Z,9.00
2023-09-27T09:32:57.617Z,10.90
2023-09-27T09:35:34.081Z,10.80
2023-09-27T09:38:08.857Z,10.10
2023-09-27T09:43:46.839Z,14.50
2023-09-27T09:46:27.510Z,9.10
2023-09-27T09:49:00.582Z,12.10
2023-09-27T09:51:33.918Z,11.00
2023-09-27T09:54:10.541Z,10.40
2023-09-27T09:56:57.192Z,10.50
2023-09-27T09:59:41.141Z,11.40
2023-09-27T10:02:24.682Z,9.10
2023-09-27T10:05:00.408Z,10.30
2023-09-27T10:07:34.348Z,8.10
2023-09-27T10:10:10.028Z,9.60
2023-09-27T10:12:46.029Z,8.70
2023-09-27T10:15:22.982Z,7.90
2023-09-27T10:18:34.861Z,10.20
2023-09-27T10:21:14.621Z,10.90
2023-09-27T10:24:05.255Z,8.70
2023-09-27T10:26:41.526Z,8.70
2023-09-27T10:29:18.800Z,9.90
2023-09-27T10:32:24.191Z,8.60
2023-09-27T10:34:57.869Z,8.20
2023-09-27T10:38:07.858Z,6.50
2023-09-27T10:40:48.741Z,8.50
2023-09-27T10:43:47.531Z,10.60
2023-09-27T10:46:21.296Z,8.10
2023-09-27T10:49:02.443Z,11.70
2023-09-27T10:51:36.863Z,8.80
2023-09-27T10:54:15.770Z,12.30
2023-09-27T10:56:54.100Z,7.50
2023-09-27T10:59:31.355Z,9.70
2023-09-27T11:02:11.144Z,8.70
2023-09-27T11:04:57.272Z,9.70
2023-09-27T11:07:47.676Z,8.00
2023-09-27T11:10:38.847Z,13.40
2023-09-27T11:13:15.309Z,14.30
2023-09-27T11:15:48.194Z,10.10
2023-09-27T11:18:21.310Z,7.10
2023-09-27T11:20:54.521Z,13.50
2023-09-27T11:23:27.755Z,11.10
2023-09-27T11:26:06.063Z,10.40
2023-09-27T11:28:38.691Z,7.30
2023-09-27T11:31:23.304Z,7.10
2023-09-27T11:34:12.692Z,9.50
2023-09-27T11:36:46.766Z,7.60
2023-09-27T11:39:28.848Z,12.80
2023-09-27T11:42:03.214Z,5.10
2023-09-27T11:44:37.007Z,7.60
2023-09-27T11:47:14.230Z,11.10
2023-09-27T11:49:51.234Z,8.20
2023-09-27T11:52:24.495Z,9.70
2023-09-27T11:54:58.238Z,10.20
2023-09-27T11:57:30.959Z,9.70
2023-09-27T12:00:09.792Z,8.60
2023-09-27T12:02:55.860Z,6.30
2023-09-27T12:05:31.154Z,7.70
2023-09-27T12:08:06.151Z,6.20
2023-09-27T12:10:38.891Z,8.50
2023-09-27T12:13:12.174Z,9.20
2023-09-27T12:15:45.363Z,10.20
2023-09-27T12:18:19.084Z,8.40
2023-09-27T12:20:52.483Z,5.70
2023-09-27T12:23:25.599Z,9.30
2023-09-27T12:26:09.848Z,5.80
2023-09-27T12:28:44.694Z,5.50
2023-09-27T12:31:25.245Z,9.00
2023-09-27T12:36:45.044Z,9.00
2023-09-27T12:39:20.688Z,9.80
2023-09-27T12:41:53.501Z,8.70
2023-09-27T12:44:26.317Z,6.80
2023-09-27T12:47:07.745Z,8.10
2023-09-27T12:49:40.940Z,10.40
2023-09-27T12:52:16.434Z,8.40
2023-09-27T12:54:49.343Z,5.40
2023-09-27T12:57:21.836Z,12.00
2023-09-27T12:59:54.464Z,5.70
2023-09-27T13:02:28.261Z,9.40
2023-09-27T13:05:02.544Z,6.10
2023-09-27T13:07:35.326Z,9.60
2023-09-27T13:10:08.959Z,7.90
2023-09-27T13:12:43.700Z,8.80
2023-09-27T13:15:17.755Z,8.30
2023-09-27T13:17:51.081Z,7.40
2023-09-27T13:20:24.216Z,8.50
2023-09-27T13:22:57.992Z,7.90
2023-09-27T13:25:30.612Z,5.70
2023-09-27T13:28:04.986Z,6.90
2023-09-27T13:30:38.101Z,9.30
2023-09-27T13:33:12.919Z,11.50
2023-09-27T13:35:47.175Z,7.80
2023-09-27T13:38:20.200Z,7.30
2023-09-27T13:40:53.325Z,13.10
2023-09-27T13:43:26.405Z,10.30
2023-09-27T13:46:03.367Z,6.00
2023-09-27T13:48:41.928Z,10.90
2023-09-27T13:53:55.181Z,7.20
2023-09-27T13:56:33.968Z,8.40
2023-09-27T13:59:07.496Z,9.10
2023-09-27T14:01:40.672Z,5.60
2023-09-27T14:04:15.798Z,7.00
2023-09-27T14:06:49.277Z,7.00
2023-09-27T14:09:22.579Z,5.80
2023-09-27T14:11:55.547Z,8.10
2023-09-27T14:14:28.658Z,7.90
2023-09-27T14:17:08.868Z,8.00
2023-09-27T14:19:43.064Z,8.60
2023-09-27T14:22:16.953Z,7.50
2023-09-27T14:24:49.987Z,8.80
2023-09-27T14:27:22.498Z,10.30
2023-09-27T14:29:55.752Z,9.20
2023-09-27T14:32:28.838Z,7.60
2023-09-27T14:35:01.781Z,8.60
2023-09-27T14:37:36.629Z,12.00
2023-09-27T14:40:12.440Z,4.90
2023-09-27T14:42:46.100Z,10.00
2023-09-27T14:45:30.549Z,10.90
2023-09-27T14:48:06.245Z,5.00
2023-09-27T14:50:42.522Z,9.80
2023-09-27T14:53:16.328Z,9.20
2023-09-27T14:55:49.678Z,7.10
2023-09-27T14:58:22.923Z,6.70
2023-09-27T15:00:56.749Z,5.90
2023-09-27T15:03:29.580Z,13.00
2023-09-27T15:06:05.243Z,6.80
2023-09-27T15:08:38.140Z,11.80
2023-09-27T15:11:12.629Z,6.80
2023-09-27T15:13:52.348Z,7.80
2023-09-27T15:16:54.181Z,9.70
2023-09-27T15:20:10.328Z,6.60
2023-09-27T15:22:57.710Z,7.70
2023-09-27T15:30:19.594Z,7.90
2023-09-27T15:33:15.218Z,7.20
2023-09-27T15:36:07.712Z,7.20
2023-09-27T15:38:48.138Z,6.00
2023-09-27T15:41:29.218Z,5.50
2023-09-27T15:44:15.876Z,8.00
2023-09-27T15:47:02.043Z,6.90
2023-09-27T15:49:36.913Z,6.50
2023-09-27T15:52:36.745Z,8.20
2023-09-27T15:55:13.984Z,4.20
2023-09-27T15:57:54.713Z,5.30
2023-09-27T16:01:16.742Z,6.40
2023-09-27T16:04:13.123Z,9.30
2023-09-27T16:07:04.093Z,5.60
2023-09-27T16:10:56.941Z,9.20
2023-09-27T16:13:57.125Z,6.70
2023-09-27T16:16:49.392Z,7.20
2023-09-27T16:19:44.972Z,8.90
2023-09-27T16:22:26.820Z,6.60
2023-09-27T16:25:09.059Z,8.60
2023-09-27T16:27:49.325Z,9.30
2023-09-27T16:30:26.192Z,8.40
2023-09-27T16:33:04.313Z,12.30
2023-09-27T16:35:44.663Z,11.00
2023-09-27T16:38:25.208Z,8.70
2023-09-27T16:41:15.040Z,8.80
2023-09-27T16:44:08.858Z,11.20
2023-09-27T16:50:02.919Z,8.90
2023-09-27T16:53:02.808Z,4.80
2023-09-27T16:56:06.428Z,7.70
2023-09-27T16:58:50.874Z,6.90
2023-09-27T17:02:18.570Z,6.10
2023-09-27T17:05:01.395Z,9.80
2023-09-27T17:07:35.324Z,8.20
2023-09-27T17:10:13.601Z,8.70
2023-09-27T17:13:02.674Z,7.60
2023-09-27T17:15:37.494Z,8.70
2023-09-27T17:18:10.863Z,9.70
2023-09-27T17:20:44.942Z,7.90
2023-09-27T17:23:21.317Z,9.00
2023-09-27T17:25:54.597Z,7.90
2023-09-27T17:28:32.009Z,7.90
2023-09-27T17:31:09.669Z,7.00
2023-09-27T17:33:55.703Z,8.90
2023-09-27T17:36:29.178Z,8.60
2023-09-27T17:39:03.948Z,6.70
2023-09-27T17:41:38.366Z,8.80
2023-09-27T17:44:11.686Z,6.90
2023-09-27T17:46:47.561Z,7.30
2023-09-27T17:49:23.962Z,6.50
2023-09-27T17:51:56.912Z,6.00
2023-09-27T17:54:30.023Z,5.90
2023-09-27T17:57:02.793Z,6.10
2023-09-27T17:59:57.183Z,5.10
2023-09-27T18:02:38.158Z,9.40
2023-09-27T18:05:26.574Z,6.50
2023-09-27T18:08:03.485Z,7.50
2023-09-27T18:10:36.933Z,10.80
2023-09-27T18:13:09.878Z,11.40
2023-09-27T18:15:46.689Z,4.90
2023-09-27T18:18:28.790Z,9.70
2023-09-27T18:21:20.806Z,5.40
2023-09-27T18:23:57.873Z,6.80
2023-09-27T18:26:39.988Z,5.40
2023-09-27T18:29:13.268Z,6.90
2023-09-27T18:31:52.757Z,4.40
2023-09-27T18:34:28.968Z,8.30
2023-09-27T18:37:12.784Z,6.70
2023-09-27T18:39:46.134Z,3.80
2023-09-27T18:42:23.567Z,5.40
2023-09-27T18:45:13.194Z,3.70
2023-09-27T18:47:57.010Z,4.30
2023-09-27T18:50:37.517Z,7.00
2023-09-27T18:53:14.933Z,6.30
2023-09-27T18:55:55.462Z,5.70
2023-09-27T18:58:33.014Z,10.10
2023-09-27T19:01:10.862Z,5.80
2023-09-27T19:03:52.684Z,8.60
2023-09-27T19:06:27.867Z,6.20
2023-09-27T19:09:13.156Z,7.30
2023-09-27T19:11:49.858Z,6.40
2023-09-27T19:14:31.573Z,7.30
2023-09-27T19:17:20.161Z,7.30
2023-09-27T19:19:59.117Z,7.70
2023-09-27T19:22:42.204Z,5.90
2023-09-27T19:25:36.248Z,5.80
2023-09-27T19:28:26.199Z,7.40
2023-09-27T19:31:20.881Z,7.50
2023-09-27T19:33:59.943Z,5.40
2023-09-27T19:36:35.013Z,7.90
2023-09-27T19:39:19.263Z,5.20
2023-09-27T19:41:52.451Z,9.60
2023-09-27T19:44:26.431Z,7.40
2023-09-27T19:47:00.369Z,6.00
2023-09-27T19:49:35.713Z,7.80
2023-09-27T19:52:09.330Z,7.10
2023-09-27T19:54:48.299Z,5.00
2023-09-27T19:57:24.768Z,9.80
2023-09-27T19:59:59.204Z,9.20
2023-09-27T20:02:35.231Z,6.70
2023-09-27T20:05:12.671Z,5.20
2023-09-27T20:07:49.541Z,5.70
2023-09-27T20:10:24.965Z,5.40
2023-09-27T20:12:59.394Z,5.60
2023-09-27T20:15:34.233Z,6.40
2023-09-27T20:18:10.088Z,7.10
2023-09-27T20:20:45.906Z,6.70
2023-09-27T20:23:20.155Z,8.30
2023-09-27T20:25:53.777Z,5.00
2023-09-27T20:28:27.282Z,7.80
2023-09-27T20:31:01.043Z,8.20
2023-09-27T20:33:37.994Z,4.90
2023-09-27T20:36:14.694Z,5.50
2023-09-27T20:38:47.472Z,6.90
2023-09-27T20:41:27.292Z,5.90
2023-09-27T20:44:01.088Z,5.00
2023-09-27T20:46:34.400Z,7.20
2023-09-27T20:49:08.432Z,6.10
2023-09-27T20:51:43.152Z,8.30
2023-09-27T20:54:17.146Z,6.70
2023-09-27T20:56:54.262Z,5.30
2023-09-27T20:59:28.128Z,5.70
2023-09-27T21:02:02.645Z,5.10
2023-09-27T21:04:35.501Z,7.70
2023-09-27T21:07:10.475Z,6.50
2023-09-27T21:09:43.306Z,6.30
2023-09-27T21:12:16.405Z,6.70
2023-09-27T21:14:49.848Z,5.70
2023-09-27T21:17:23.271Z,6.10
2023-09-27T21:20:00.039Z,6.10
2023-09-27T21:22:41.050Z,5.60
2023-09-27T21:25:22.594Z,5.80
2023-09-27T21:27:57.347Z,4.40
2023-09-27T21:30:36.937Z,4.80
2023-09-27T21:33:18.850Z,6.50
2023-09-27T21:35:58.221Z,6.40
2023-09-27T21:38:31.629Z,8.60
2023-09-27T21:41:04.306Z,7.40
2023-09-27T21:43:38.218Z,8.80
2023-09-27T21:46:21.581Z,5.20
2023-09-27T21:48:56.480Z,5.20
2023-09-27T21:51:28.862Z,5.50
2023-09-27T21:54:01.900Z,5.10
2023-09-27T21:56:37.134Z,6.40
2023-09-27T21:59:10.083Z,9.00
2023-09-27T22:01:42.776Z,4.50
2023-09-27T22:04:15.556Z,8.90
2023-09-27T22:06:48.936Z,5.70
2023-09-27T22:09:24.036Z,7.00
2023-09-27T22:11:57.382Z,4.70
2023-09-27T22:14:31.908Z,9.00
2023-09-27T22:17:09.690Z,7.00
2023-09-27T22:19:42.272Z,4.80
2023-09-27T22:22:21.829Z,9.40
2023-09-27T22:24:54.955Z,6.60
2023-09-27T22:27:27.928Z,5.00
2023-09-27T22:30:01.314Z,8.50
2023-09-27T22:32:40.008Z,8.00
2023-09-27T22:35:23.803Z,5.60
2023-09-27T22:37:58.363Z,8.90
2023-09-27T22:40:33.066Z,5.90
2023-09-27T22:43:06.661Z,6.90
2023-09-27T22:45:40.600Z,7.30
2023-09-27T22:48:15.543Z,6.10
2023-09-27T22:50:51.702Z,6.70
2023-09-27T22:53:30.319Z,6.90
2023-09-27T22:56:11.626Z,5.60
2023-09-27T22:58:45.825Z,6.70
2023-09-27T23:04:59.102Z,6.20
2023-09-27T23:07:34.350Z,7.40
2023-09-27T23:10:15.496Z,5.80
2023-09-27T23:13:01.074Z,8.40
2023-09-27T23:15:41.152Z,6.90
2023-09-27T23:18:14.739Z,6.10
2023-09-27T23:20:47.241Z,5.70
2023-09-27T23:23:20.626Z,10.50
2023-09-27T23:26:02.141Z,6.30
2023-09-27T23:28:44.782Z,9.80
2023-09-27T23:31:20.540Z,8.30
2023-09-27T23:33:54.149Z,7.00
2023-09-27T23:36:27.646Z,8.10
2023-09-27T23:39:04.918Z,6.80
2023-09-27T23:41:41.303Z,7.10
2023-09-27T23:44:16.069Z,8.50
2023-09-27T23:46:52.530Z,6.10
2023-09-27T23:49:25.777Z,7.60
2023-09-27T23:52:00.609Z,7.00
2023-09-27T23:54:35.483Z,6.60
2023-09-27T23:57:08.649Z,6.70
2023-09-27T23:59:42.167Z,5.40
